Time;durP1;ratioP1;P1;durP2;ratioP2;P2;SDS_P1;SDS_P2;PMS_P1;PMS_P2;Temp;Humidity;BMP_temperature;BMP_pressure;BME280_temperature;BME280_humidity;BME280_pressure;Samples;Min_cycle;Max_cycle;Signal;HPM_P1;HPM_P2
2021/05/11 00:01:27;;;;;;;6.75;3.17;;;;;;;21.58;51.60;100615.50;5023766;28;20056;-54
2021/05/11 00:03:53;;;;;;;6.22;3.00;;;;;;;21.56;51.53;100618.53;5025699;28;20087;-49
2021/05/11 00:06:18;;;;;;;6.72;2.80;;;;;;;21.59;51.65;100617.03;5026997;28;20091;-52
2021/05/11 00:08:43;;;;;;;5.20;2.70;;;;;;;21.58;51.15;100615.50;5026170;28;20454;-53
2021/05/11 00:11:09;;;;;;;6.47;2.83;;;;;;;21.53;51.32;100608.44;5026764;28;20055;-54
2021/05/11 00:13:34;;;;;;;9.45;3.13;;;;;;;21.51;51.75;100610.72;5025894;28;20037;-52
2021/05/11 00:16:00;;;;;;;7.75;3.50;;;;;;;21.54;52.06;100612.72;5026763;28;20052;-51
2021/05/11 00:18:26;;;;;;;7.22;3.20;;;;;;;21.51;51.29;100599.91;5025717;28;20665;-53
2021/05/11 00:20:51;;;;;;;8.73;3.38;;;;;;;21.52;51.74;100598.78;5027102;28;20087;-54
2021/05/11 00:23:16;;;;;;;4.80;2.78;;;;;;;21.54;51.35;100610.00;5020545;28;20041;-51
2021/05/11 00:25:42;;;;;;;8.20;3.42;;;;;;;21.54;50.98;100609.22;5005535;28;20033;-51
2021/05/11 00:28:07;;;;;;;6.40;3.13;;;;;;;21.51;51.43;100612.66;5006639;28;20044;-52
2021/05/11 00:30:32;;;;;;;6.65;3.15;;;;;;;21.46;52.28;100615.66;5004132;28;20049;-49
2021/05/11 00:32:58;;;;;;;7.55;3.03;;;;;;;21.48;51.55;100614.16;5007191;28;20046;-53
2021/05/11 00:35:23;;;;;;;8.50;3.55;;;;;;;21.45;51.70;100609.47;5006255;28;20049;-54
2021/05/11 00:37:49;;;;;;;7.63;3.30;;;;;;;21.45;51.72;100606.75;5006670;28;20050;-49
2021/05/11 00:40:14;;;;;;;6.65;3.47;;;;;;;21.49;52.00;100612.22;5005817;28;20038;-49
2021/05/11 00:42:39;;;;;;;8.75;3.47;;;;;;;21.44;51.63;100605.22;4988676;28;20041;-47
2021/05/11 00:45:05;;;;;;;7.00;2.95;;;;;;;21.45;51.54;100601.34;4988904;28;20508;-49
2021/05/11 00:47:31;;;;;;;6.50;3.30;;;;;;;21.45;51.67;100606.75;5006255;28;20168;-51
2021/05/11 00:49:56;;;;;;;7.38;3.45;;;;;;;21.44;51.86;100605.22;5006506;28;20408;-49
2021/05/11 00:52:22;;;;;;;6.80;3.28;;;;;;;21.42;51.91;100607.47;5005616;28;20233;-52
2021/05/11 00:54:48;;;;;;;5.88;3.13;;;;;;;21.40;51.71;100608.97;4988626;28;20502;-50
2021/05/11 00:57:13;;;;;;;8.60;3.67;;;;;;;21.41;52.00;100613.25;4956282;28;20941;-54
2021/05/11 00:59:38;;;;;;;6.43;3.22;;;;;;;21.39;51.94;100600.09;4988607;28;20121;-51
2021/05/11 01:02:06;;;;;;;10.70;3.50;;;;;;;21.39;51.96;100610.91;4989384;28;20034;-52
2021/05/11 01:04:31;;;;;;;7.20;3.53;;;;;;;21.37;51.81;100615.88;4984816;28;20042;-52
2021/05/11 01:06:56;;;;;;;8.43;3.03;;;;;;;21.32;52.32;100610.00;4985505;28;20045;-53
2021/05/11 01:09:22;;;;;;;9.13;3.53;;;;;;;21.25;52.10;100611.44;4985938;28;20944;-54
2021/05/11 01:11:48;;;;;;;8.10;3.55;;;;;;;21.27;52.19;100616.47;4968462;28;20034;-53
2021/05/11 01:14:13;;;;;;;7.63;3.45;;;;;;;21.21;52.32;100612.50;4985929;28;20042;-50
2021/05/11 01:16:40;;;;;;;6.57;3.42;;;;;;;21.20;52.10;100606.31;4985940;28;20043;-51
2021/05/11 01:19:30;;;;;;;8.65;3.22;;;;;;;21.14;52.00;100604.28;4993859;28;20400;-54
2021/05/11 01:22:01;;;;;;;6.32;3.40;;;;;;;21.15;52.35;100603.13;4990884;28;20121;-54
2021/05/11 01:24:35;;;;;;;7.15;3.55;;;;;;;21.11;52.38;100599.59;4988786;28;20045;-52
2021/05/11 01:27:10;;;;;;;7.40;3.40;;;;;;;21.09;52.30;100607.28;4985276;28;20451;-50
2021/05/11 01:29:46;;;;;;;6.88;3.53;;;;;;;21.02;52.44;100596.28;4986686;28;20035;-52
2021/05/11 01:51:12;;;;;;;6.50;3.28;;;;;;;20.85;52.86;100570.50;4984892;28;20038;-53
2021/05/11 01:53:56;;;;;;;8.15;3.50;;;;;;;20.80;53.11;100576.19;5001633;28;20180;-50
2021/05/11 01:57:35;;;;;;;6.22;3.53;;;;;;;20.81;52.94;100575.06;5004129;28;20034;-52
2021/05/11 02:23:30;;;;;;;7.43;3.45;;;;;;;20.65;53.67;100572.44;5021546;28;20880;-53
2021/05/11 02:25:56;;;;;;;8.88;3.65;;;;;;;20.61;53.63;100571.56;5022606;28;20029;-50
2021/05/11 02:28:23;;;;;;;8.65;3.83;;;;;;;20.65;53.48;100571.66;5023938;28;20080;-53
2021/05/11 02:30:48;;;;;;;9.45;3.72;;;;;;;20.62;53.31;100566.97;5002499;28;20041;-50
2021/05/11 02:33:13;;;;;;;8.20;3.58;;;;;;;20.59;53.69;100568.44;5003573;28;20044;-49
2021/05/11 02:35:39;;;;;;;11.55;3.97;;;;;;;20.57;53.70;100567.25;5002611;28;20041;-53
2021/05/11 02:38:04;;;;;;;8.55;4.28;;;;;;;20.57;53.35;100564.53;5004287;28;20476;-51
2021/05/11 02:40:29;;;;;;;8.63;3.67;;;;;;;20.56;53.79;100571.84;4986730;28;20124;-51
2021/05/11 02:43:04;;;;;;;9.00;3.50;;;;;;;20.52;53.62;100571.00;5003972;28;20042;-50
2021/05/11 02:45:31;;;;;;;8.02;3.58;;;;;;;20.56;53.55;100571.84;5013901;28;20029;-51
2021/05/11 02:47:56;;;;;;;8.88;4.00;;;;;;;20.54;53.53;100571.44;5024355;28;20084;-53
2021/05/11 02:50:26;;;;;;;8.40;3.60;;;;;;;20.47;53.72;100578.59;5023054;28;20041;-51
2021/05/11 02:52:51;;;;;;;8.20;3.75;;;;;;;20.47;53.68;100573.97;5006133;28;20400;-51
2021/05/11 02:55:17;;;;;;;7.00;3.67;;;;;;;20.48;53.99;100575.53;5003845;28;20037;-49
2021/05/11 02:57:42;;;;;;;6.80;3.92;;;;;;;20.51;53.70;100576.75;5004337;28;20068;-49
2021/05/11 03:00:09;;;;;;;6.45;3.70;;;;;;;20.51;53.47;100591.03;5002460;28;20072;-51
2021/05/11 03:02:34;;;;;;;6.68;3.58;;;;;;;20.45;53.91;100587.03;5020177;28;20037;-52
2021/05/11 03:05:00;;;;;;;10.38;3.72;;;;;;;20.44;53.65;100585.47;5024046;28;20052;-50
2021/05/11 03:07:26;;;;;;;6.95;3.70;;;;;;;20.48;53.56;100591.75;5023721;28;20102;-53
2021/05/11 03:09:51;;;;;;;5.40;3.20;;;;;;;20.45;53.63;100589.75;5005771;28;20047;-52
2021/05/11 03:12:16;;;;;;;7.80;3.63;;;;;;;20.41;53.93;100593.53;5021542;28;20033;-52
2021/05/11 03:14:42;;;;;;;8.50;3.40;;;;;;;20.40;53.89;100591.94;5024051;28;20041;-52
2021/05/11 03:17:07;;;;;;;7.35;3.28;;;;;;;20.42;54.19;100590.44;5022335;28;20054;-51
2021/05/11 03:19:33;;;;;;;7.93;3.60;;;;;;;20.37;53.88;100590.72;5023261;28;20033;-47
2021/05/11 03:21:58;;;;;;;8.10;3.55;;;;;;;20.40;54.04;100576.53;5023921;28;20057;-51
2021/05/11 03:24:23;;;;;;;7.68;4.32;;;;;;;20.31;54.08;100586.75;5022163;28;20044;-48
2021/05/11 03:26:50;;;;;;;9.93;4.20;;;;;;;20.36;53.92;100583.75;5024094;28;20042;-48
2021/05/11 03:29:15;;;;;;;11.30;3.65;;;;;;;20.30;54.17;100584.41;5023626;28;20069;-50
2021/05/11 03:31:41;;;;;;;10.75;3.80;;;;;;;20.33;54.15;100581.75;5022893;28;20045;-48
2021/05/11 03:34:06;;;;;;;7.63;4.05;;;;;;;20.31;53.54;100585.94;5022088;28;20038;-49
2021/05/11 03:36:31;;;;;;;8.40;3.42;;;;;;;20.33;53.69;100580.97;5022683;28;20407;-53
2021/05/11 03:38:59;;;;;;;7.55;3.80;;;;;;;20.33;54.14;100578.28;5027319;28;20036;-48
2021/05/11 03:41:29;;;;;;;7.90;3.67;;;;;;;20.31;54.33;100573.25;5022533;28;20037;-50
2021/05/11 03:43:59;;;;;;;8.18;3.50;;;;;;;20.27;54.21;100569.69;5024040;28;20033;-50
2021/05/11 03:46:25;;;;;;;7.97;3.40;;;;;;;20.33;54.28;100568.28;5025109;28;20045;-51
2021/05/11 03:48:50;;;;;;;6.95;3.15;;;;;;;20.36;54.05;100572.19;5027843;28;20451;-52
2021/05/11 03:51:17;;;;;;;9.63;3.38;;;;;;;20.34;54.33;100577.16;5027212;28;20041;-48
2021/05/11 03:53:42;;;;;;;6.05;3.70;;;;;;;20.34;53.91;100574.44;5027354;28;20148;-49
2021/05/11 03:56:08;;;;;;;5.90;3.22;;;;;;;20.27;54.22;100574.31;5026830;28;20132;-47
2021/05/11 03:58:33;;;;;;;8.48;3.47;;;;;;;20.19;54.12;100575.25;5026654;28;20047;-51
2021/05/11 04:00:59;;;;;;;8.07;3.35;;;;;;;20.23;54.44;100587.69;5027836;28;20034;-47
2021/05/11 04:03:24;;;;;;;6.25;3.38;;;;;;;20.23;54.39;100576.09;5025694;28;20137;-47
2021/05/11 04:05:52;;;;;;;6.53;3.65;;;;;;;20.20;54.50;100576.81;5005394;28;20041;-49
2021/05/11 04:08:32;;;;;;;5.53;3.28;;;;;;;20.14;54.91;100576.28;5007244;28;20030;-52
2021/05/11 04:11:07;;;;;;;5.93;3.42;;;;;;;20.18;54.66;100577.19;5007065;28;20030;-48
2021/05/11 04:16:23;;;;;;;10.45;3.63;;;;;;;20.19;54.67;100578.72;5007038;28;20076;-49
2021/05/11 04:18:51;;;;;;;8.70;3.75;;;;;;;20.16;54.84;100578.66;5010643;28;20391;-51
2021/05/11 04:21:17;;;;;;;9.20;3.67;;;;;;;20.13;54.86;100584.75;5008892;28;20029;-52
2021/05/11 04:23:43;;;;;;;7.32;3.35;;;;;;;20.13;54.88;100584.75;5006478;28;20045;-54
2021/05/11 04:26:10;;;;;;;8.23;3.38;;;;;;;20.17;54.69;100588.31;5012816;28;20377;-49
2021/05/11 04:28:35;;;;;;;5.85;3.30;;;;;;;20.19;54.64;100586.81;5021541;28;20447;-50
2021/05/11 04:31:01;;;;;;;7.25;3.40;;;;;;;20.14;54.95;100595.19;4999644;28;20164;-54
2021/05/11 04:33:26;;;;;;;8.85;3.60;;;;;;;20.18;54.93;100587.19;5016907;28;20052;-52
2021/05/11 04:35:53;;;;;;;4.57;3.40;;;;;;;20.17;54.87;100580.22;5024204;28;20519;-55
2021/05/11 04:38:18;;;;;;;6.72;3.10;;;;;;;20.18;54.84;100581.78;5025746;28;20395;-51
2021/05/11 04:40:44;;;;;;;5.90;3.05;;;;;;;20.19;54.95;100584.13;5026031;28;20033;-52
2021/05/11 04:43:09;;;;;;;8.98;3.83;;;;;;;20.12;55.12;100583.97;5026242;28;20042;-50
2021/05/11 04:45:35;;;;;;;4.13;3.20;;;;;;;20.09;55.04;100587.38;5026514;28;20041;-53
2021/05/11 04:48:00;;;;;;;4.68;3.08;;;;;;;20.11;55.29;100587.78;5024747;28;20514;-54
2021/05/11 04:50:29;;;;;;;5.60;3.50;;;;;;;20.08;55.48;100586.56;5025407;28;20176;-54
2021/05/11 04:52:56;;;;;;;6.18;3.60;;;;;;;20.17;55.18;100593.69;5009751;28;20108;-55
2021/05/11 04:55:21;;;;;;;6.18;3.08;;;;;;;20.21;55.37;100589.19;5014773;28;20056;-53
2021/05/11 04:57:47;;;;;;;9.68;3.65;;;;;;;20.23;56.07;100582.28;5024892;28;20120;-55
2021/05/11 05:00:13;;;;;;;9.90;3.40;;;;;;;20.15;55.97;100594.06;5020273;28;20041;-51
2021/05/11 05:02:41;;;;;;;7.38;3.40;;;;;;;20.22;55.57;100590.75;5003973;28;20037;-55
2021/05/11 05:05:07;;;;;;;8.40;3.20;;;;;;;20.25;55.30;100590.06;5015315;28;20038;-54
2021/05/11 05:07:35;;;;;;;6.18;3.25;;;;;;;20.22;55.28;100596.16;5010718;28;20049;-52
2021/05/11 05:10:00;;;;;;;10.55;3.35;;;;;;;20.21;55.25;100592.66;5013635;28;20121;-52
2021/05/11 05:12:25;;;;;;;6.15;3.08;;;;;;;20.24;54.88;100583.91;5012572;28;20124;-54
2021/05/11 05:14:51;;;;;;;9.48;3.70;;;;;;;20.27;56.95;100585.09;5019875;28;20870;-53
2021/05/11 05:17:16;;;;;;;8.18;3.78;;;;;;;20.33;57.38;100589.84;5013740;28;20041;-52
2021/05/11 05:19:42;;;;;;;8.07;3.13;;;;;;;20.35;56.83;100584.13;5024120;28;20034;-51
2021/05/11 05:22:08;;;;;;;8.68;3.88;;;;;;;20.34;56.56;100591.44;5013322;28;20531;-54
2021/05/11 05:24:41;;;;;;;9.93;3.38;;;;;;;20.38;56.25;100605.00;5014292;28;20561;-56
2021/05/11 05:29:38;;;;;;;6.45;3.17;;;;;;;20.36;56.43;100599.94;5015624;28;20046;-55
2021/05/11 05:32:04;;;;;;;6.78;3.10;;;;;;;20.35;56.32;100597.63;5021381;28;20195;-56
2021/05/11 05:34:29;;;;;;;4.75;3.25;;;;;;;20.38;55.67;100600.38;5017127;28;20112;-54
2021/05/11 05:36:54;;;;;;;5.28;3.25;;;;;;;20.40;55.70;100595.44;5013738;28;20153;-53
2021/05/11 05:39:23;;;;;;;6.97;3.40;;;;;;;20.38;55.41;100603.06;5010823;28;20203;-55
2021/05/11 05:41:48;;;;;;;6.47;3.20;;;;;;;20.36;55.53;100596.47;5013310;28;20034;-55
2021/05/11 05:44:14;;;;;;;9.57;3.40;;;;;;;20.14;57.21;100597.88;5013381;28;20044;-54
2021/05/11 05:46:39;;;;;;;6.82;3.10;;;;;;;20.09;57.04;100598.94;5017548;28;20042;-55
2021/05/11 05:49:07;;;;;;;5.50;3.30;;;;;;;20.13;56.97;100598.25;4991197;28;20042;-53
2021/05/11 05:51:32;;;;;;;12.20;3.25;;;;;;;20.11;57.02;100595.88;4995560;28;20057;-55
2021/05/11 05:53:58;;;;;;;5.55;2.95;;;;;;;20.14;56.68;100587.09;4992364;28;20030;-53
2021/05/11 05:56:23;;;;;;;5.15;3.42;;;;;;;20.14;57.20;100589.03;5016780;28;20045;-54
2021/05/11 05:58:49;;;;;;;8.95;3.08;;;;;;;20.14;56.53;100583.63;5016353;28;20081;-54
2021/05/11 06:01:14;;;;;;;5.05;3.28;;;;;;;20.14;56.15;100580.94;5015252;28;20048;-53
2021/05/11 06:06:09;;;;;;;7.82;3.45;;;;;;;20.11;55.96;100585.88;5017293;28;20128;-52
2021/05/11 06:08:35;;;;;;;5.55;3.35;;;;;;;20.14;55.66;100580.94;5011016;28;20069;-50
2021/05/11 06:11:12;;;;;;;6.50;3.95;;;;;;;20.11;55.51;100587.78;5006377;28;20121;-50
2021/05/11 06:13:42;;;;;;;5.13;2.97;;;;;;;20.19;55.54;100586.06;4969278;28;20037;-56
2021/05/11 06:18:52;;;;;;;;;;;;;;;20.26;55.13;100592.41;5013412;28;20117;-53
2021/05/11 06:21:17;;;;;;;18.38;3.90;;;;;;;20.22;56.53;100594.22;5010838;28;20019;-54
2021/05/11 06:23:43;;;;;;;10.23;3.78;;;;;;;20.26;56.25;100597.81;5017620;28;20056;-52
2021/05/11 06:26:09;;;;;;;14.23;3.88;;;;;;;20.26;55.78;100588.94;5013292;28;20039;-54
2021/05/11 06:28:38;;;;;;;13.48;4.20;;;;;;;20.25;55.62;100582.75;5022796;28;20285;-54
2021/05/11 06:31:03;;;;;;;24.77;3.67;;;;;;;20.20;56.20;100584.91;5022502;28;20041;-52
2021/05/11 06:33:29;;;;;;;6.07;3.47;;;;;;;20.18;56.35;100593.38;5023401;28;20063;-55
2021/05/11 06:35:54;;;;;;;12.80;3.60;;;;;;;20.18;56.16;100590.66;5020412;28;20037;-56
2021/05/11 06:38:20;;;;;;;7.22;3.40;;;;;;;20.18;56.50;100592.56;5016218;28;20587;-53
2021/05/11 06:40:46;;;;;;;8.88;3.47;;;;;;;20.21;56.49;100586.47;5012086;28;20561;-55
2021/05/11 06:43:12;;;;;;;12.35;3.60;;;;;;;20.20;56.76;100584.91;5023207;28;20540;-54
2021/05/11 06:48:26;;;;;;;7.80;3.35;;;;;;;20.19;56.53;100592.22;5012021;28;20053;-55
2021/05/11 06:53:44;;;;;;;10.00;3.92;;;;;;;20.17;56.31;100591.00;5018907;28;20496;-54
2021/05/11 06:56:14;;;;;;;10.32;4.25;;;;;;;20.21;56.17;100592.66;5016389;28;20731;-55
2021/05/11 06:58:39;;;;;;;11.50;4.43;;;;;;;20.23;56.21;100595.00;5015990;28;20127;-55
2021/05/11 07:01:04;;;;;;;5.07;3.90;;;;;;;20.23;56.02;100601.19;5017199;28;20033;-54
2021/05/11 07:03:30;;;;;;;8.95;4.10;;;;;;;20.22;56.30;100596.16;5011814;28;20038;-58
2021/05/11 07:05:56;;;;;;;6.65;3.90;;;;;;;20.27;56.11;100595.91;5003140;28;20045;-55
2021/05/11 07:10:51;;;;;;;7.03;3.93;;;;;;;20.40;55.63;100589.25;5015788;28;20570;-56
2021/05/11 07:13:16;;;;;;;9.25;4.20;;;;;;;20.36;55.76;100575.66;5018697;28;20704;-42
2021/05/11 07:15:42;;;;;;;6.35;4.13;;;;;;;20.40;55.54;100570.34;5014109;28;20038;-42
2021/05/11 07:18:09;;;;;;;5.38;4.65;;;;;;;20.43;55.56;100561.56;5003039;28;20040;-48
2021/05/11 07:20:34;;;;;;;7.97;4.70;;;;;;;20.44;55.25;100561.19;5019359;28;20139;-45
2021/05/11 07:23:00;;;;;;;9.55;4.25;;;;;;;20.48;55.22;100564.75;5019377;28;20053;-57
2021/05/11 07:25:26;;;;;;;6.88;4.43;;;;;;;20.48;55.36;100564.75;5003156;28;20038;-52
2021/05/11 07:30:28;;;;;;;8.35;4.47;;;;;;;20.56;54.92;100561.06;5008201;28;20045;-51
2021/05/11 07:32:54;;;;;;;5.38;4.25;;;;;;;20.60;55.00;100559.19;5005436;28;20030;-51
2021/05/11 07:35:20;;;;;;;6.05;4.70;;;;;;;20.60;54.52;100570.00;5011859;28;20639;-54
2021/05/11 07:37:45;;;;;;;7.88;5.43;;;;;;;20.61;54.77;100568.09;5010796;28;20052;-49
2021/05/11 07:40:11;;;;;;;9.00;5.47;;;;;;;20.59;54.46;100576.56;5007756;28;20038;-51
2021/05/11 07:42:36;;;;;;;9.75;5.88;;;;;;;20.63;54.60;100576.59;5015184;28;20045;-46
2021/05/11 07:45:04;;;;;;;7.05;4.80;;;;;;;20.71;53.93;100577.56;5009550;28;20520;-53
2021/05/11 08:16:29;;;;;;;7.32;5.50;;;;;;;21.26;53.42;100566.25;4999292;28;20040;-47
2021/05/11 08:30:00;;;;;;;6.13;4.40;;;;;;;21.32;53.42;100577.56;4996815;28;20085;-50
2021/05/11 08:32:26;;;;;;;7.75;4.70;;;;;;;21.33;53.25;100577.22;4993173;28;20067;-43
2021/05/11 08:34:51;;;;;;;9.88;4.53;;;;;;;21.42;53.43;100585.84;5015315;28;20396;-45
2021/05/11 08:37:17;;;;;;;10.60;5.18;;;;;;;21.48;53.28;100580.91;5014601;28;20046;-51
2021/05/11 08:39:43;;;;;;;12.45;5.18;;;;;;;21.50;52.65;100581.38;5016505;28;20034;-39
2021/05/11 08:42:09;;;;;;;8.32;5.10;;;;;;;21.40;52.96;100584.66;4999123;28;20107;-42
2021/05/11 08:44:34;;;;;;;7.97;5.25;;;;;;;21.37;52.68;100591.56;4991080;28;20592;-42
2021/05/11 08:47:00;;;;;;;7.47;5.18;;;;;;;21.40;52.71;100590.84;4996221;28;20037;-43
2021/05/11 08:49:25;;;;;;;6.43;5.00;;;;;;;21.40;52.92;100596.25;4997026;28;20037;-45
2021/05/11 08:54:26;;;;;;;7.03;4.77;;;;;;;21.41;52.56;100605.13;5015030;28;20043;-51
2021/05/11 09:27:21;;;;;;;9.13;4.88;;;;;;;21.51;52.16;100618.06;4996035;28;20128;-50
2021/05/11 09:50:57;;;;;;;7.97;4.47;;;;;;;21.49;51.89;100642.75;5016078;28;20091;-54
2021/05/11 09:57:19;;;;;;;5.70;4.10;;;;;;;21.71;51.21;100642.00;5004167;28;20050;-51
2021/05/11 10:39:39;;;;;;;11.60;8.37;;;;;;;21.34;48.93;100583.41;4987178;28;20107;-42
2021/05/11 10:42:26;;;;;;;14.82;8.60;;;;;;;21.08;48.67;100578.69;4994204;28;20552;-48
2021/05/11 10:48:20;;;;;;;12.75;9.13;;;;;;;21.25;47.84;100553.91;4973000;28;20500;-44
2021/05/11 10:50:50;;;;;;;7.75;6.95;;;;;;;21.17;48.00;100552.22;5009661;28;20048;-43
2021/05/11 10:53:38;;;;;;;11.80;8.00;;;;;;;21.14;47.46;100548.31;4988457;28;20527;-43
2021/05/11 10:56:18;;;;;;;8.32;5.82;;;;;;;21.08;47.94;100546.25;4994100;28;20041;-42
2021/05/11 11:01:42;;;;;;;7.97;5.38;;;;;;;21.24;48.29;100544.22;5013324;28;20048;-43
2021/05/11 11:04:09;;;;;;;7.38;5.43;;;;;;;21.37;48.31;100545.59;4985990;28;20037;-45
2021/05/11 11:06:56;;;;;;;7.47;5.20;;;;;;;21.46;48.39;100551.56;4994820;28;20094;-42
2021/05/11 11:09:22;;;;;;;8.25;5.03;;;;;;;21.49;48.51;100558.16;5013964;28;20037;-43
2021/05/11 11:11:47;;;;;;;7.47;4.75;;;;;;;21.57;49.60;100551.72;5000922;28;20045;-44
2021/05/11 11:14:12;;;;;;;5.80;4.75;;;;;;;21.71;49.23;100557.38;4987107;28;20790;-46
2021/05/11 11:16:38;;;;;;;12.40;4.75;;;;;;;21.59;49.83;100547.50;5002090;28;20118;-47
2021/05/11 11:19:13;;;;;;;6.65;4.15;;;;;;;21.64;49.56;100541.78;5002836;28;20137;-48
2021/05/11 11:22:02;;;;;;;6.75;4.05;;;;;;;21.71;49.18;100547.31;4995376;28;20038;-47
2021/05/11 11:24:28;;;;;;;8.38;3.85;;;;;;;21.66;48.28;100544.16;5022390;28;20103;-42
2021/05/11 11:26:57;;;;;;;5.13;3.42;;;;;;;21.74;48.48;100543.13;4985295;28;20123;-45
2021/05/11 11:29:27;;;;;;;9.50;4.38;;;;;;;21.73;49.11;100546.94;5014160;28;20060;-46
2021/05/11 11:31:53;;;;;;;5.22;4.15;;;;;;;21.74;49.03;100546.59;5001832;28;20060;-47
2021/05/11 11:34:25;;;;;;;7.95;5.32;;;;;;;21.75;49.97;100544.66;4995897;28;20030;-44
2021/05/11 11:36:56;;;;;;;6.45;4.38;;;;;;;21.72;49.62;100548.88;5013808;28;20048;-43
2021/05/11 11:39:23;;;;;;;9.23;5.45;;;;;;;21.75;50.13;100555.47;4995343;28;20033;-46
2021/05/11 11:41:49;;;;;;;5.75;4.05;;;;;;;21.83;50.08;100560.63;5011048;28;20026;-41
2021/05/11 11:44:18;;;;;;;5.47;4.13;;;;;;;21.89;49.80;100565.75;4989670;28;20030;-44
2021/05/11 11:46:49;;;;;;;5.57;4.40;;;;;;;21.80;50.33;100566.00;5009417;28;20076;-50
2021/05/11 11:49:18;;;;;;;6.18;4.97;;;;;;;21.91;50.12;100560.78;4992252;28;20386;-50
2021/05/11 11:51:43;;;;;;;7.78;4.70;;;;;;;21.87;50.36;100560.72;4982612;28;20045;-44
2021/05/11 11:54:28;;;;;;;10.90;5.88;;;;;;;21.88;50.40;100559.59;4994756;28;20038;-47
2021/05/11 11:59:35;;;;;;;7.35;5.38;;;;;;;21.88;50.54;100569.63;5003470;28;20049;-48
2021/05/11 12:02:02;;;;;;;6.47;4.60;;;;;;;21.88;50.94;100566.94;5015279;28;20042;-47
2021/05/11 12:04:27;;;;;;;8.43;6.20;;;;;;;21.95;50.42;100564.31;5014535;28;20068;-44
2021/05/11 12:06:53;;;;;;;9.57;7.20;;;;;;;21.91;51.04;100571.63;4999134;28;20496;-43
2021/05/11 12:09:20;;;;;;;9.18;6.50;;;;;;;21.94;50.98;100576.31;4987210;28;20038;-41
2021/05/11 12:11:45;;;;;;;9.93;5.90;;;;;;;21.90;50.74;100581.66;5019356;28;20026;-39
2021/05/11 12:14:13;;;;;;;12.52;7.63;;;;;;;21.89;51.13;100580.06;4999064;28;20045;-43
2021/05/11 12:16:45;;;;;;;7.80;5.90;;;;;;;21.79;51.50;100583.38;4981643;28;20104;-43
2021/05/11 12:19:12;;;;;;;10.52;5.35;;;;;;;21.77;51.36;100580.25;4997102;28;20045;-40
2021/05/11 12:21:59;;;;;;;7.20;5.28;;;;;;;21.79;51.42;100589.56;4991912;28;20045;-42
2021/05/11 12:24:25;;;;;;;8.85;5.97;;;;;;;21.96;50.78;100593.72;4997570;28;20045;-44
2021/05/11 12:26:51;;;;;;;7.25;6.10;;;;;;;21.90;51.41;100594.38;4999584;28;20049;-49
2021/05/11 12:29:18;;;;;;;8.00;5.43;;;;;;;21.89;51.30;100600.94;5012969;28;20038;-44
2021/05/11 12:31:47;;;;;;;7.53;4.85;;;;;;;21.77;51.60;100602.69;4997187;28;20076;-40
2021/05/11 12:34:14;;;;;;;6.63;4.82;;;;;;;21.72;51.73;100602.22;4990338;28;20049;-48
2021/05/11 12:36:41;;;;;;;6.57;5.22;;;;;;;21.72;51.27;100600.25;5001473;28;20099;-53
2021/05/11 12:42:24;;;;;;;7.43;4.68;;;;;;;21.65;51.62;100599.38;5011742;28;20124;-53
2021/05/11 12:45:04;;;;;;;7.73;5.27;;;;;;;21.65;51.54;100605.56;4994477;28;20045;-49
2021/05/11 12:47:40;;;;;;;7.00;5.10;;;;;;;21.47;51.63;100604.50;4993983;28;20380;-46
2021/05/11 12:50:21;;;;;;;7.05;5.20;;;;;;;21.48;52.03;100603.34;5017228;28;20034;-50
2021/05/11 12:52:48;;;;;;;9.23;4.95;;;;;;;21.66;51.81;100609.06;5002959;28;20041;-51
2021/05/11 12:55:32;;;;;;;7.13;4.57;;;;;;;21.67;51.52;100614.09;5000974;28;20040;-45
2021/05/11 12:58:10;;;;;;;7.47;4.90;;;;;;;21.71;51.00;100617.66;4998111;28;20048;-45
2021/05/11 13:00:42;;;;;;;8.00;5.15;;;;;;;21.78;51.36;100617.75;5004607;28;20040;-44
2021/05/11 13:03:22;;;;;;;5.82;5.03;;;;;;;21.80;51.34;100610.06;5010842;28;20353;-47
2021/05/11 13:35:14;;;;;;;7.03;4.07;;;;;;;21.94;50.36;100628.47;5018817;28;20033;-43
2021/05/11 13:37:39;;;;;;;6.15;3.97;;;;;;;21.90;50.70;100627.66;5009037;28;20360;-47
2021/05/11 13:40:06;;;;;;;6.80;4.20;;;;;;;22.05;50.15;100624.00;4984696;28;20281;-40
2021/05/11 13:42:32;;;;;;;4.93;4.13;;;;;;;21.90;50.63;100616.81;4998787;28;20499;-47
2021/05/11 13:44:57;;;;;;;4.63;3.90;;;;;;;21.81;50.91;100627.84;5008984;28;20052;-50
2021/05/11 13:47:23;;;;;;;6.85;3.92;;;;;;;21.75;50.80;100617.69;5003070;28;20064;-47
2021/05/11 13:49:52;;;;;;;4.80;4.32;;;;;;;21.78;51.14;100620.47;4966956;28;20049;-46
2021/05/11 13:52:17;;;;;;;6.47;4.95;;;;;;;21.78;51.33;100622.38;4985226;28;20033;-44
2021/05/11 13:54:43;;;;;;;8.13;4.50;;;;;;;21.77;51.07;100612.72;5002871;28;20044;-44
2021/05/11 14:02:27;;;;;;;5.00;4.50;;;;;;;21.73;52.08;100618.06;4989131;28;21128;-47
2021/05/11 14:04:52;;;;;;;;;;;;;;;21.68;52.84;100626.47;5005403;28;20041;-43
2021/05/11 14:07:18;;;;;;;7.73;5.77;;;;;;;21.70;53.05;100612.59;5004155;28;19964;-42
2021/05/11 14:09:43;;;;;;;6.75;5.65;;;;;;;21.72;53.15;100599.50;4986363;28;20038;-43
2021/05/11 14:12:09;;;;;;;8.70;5.70;;;;;;;21.74;52.64;100594.50;4986361;28;20483;-45
2021/05/11 14:14:34;;;;;;;8.90;5.88;;;;;;;21.67;53.51;100581.63;5004396;28;20502;-47
2021/05/11 14:16:59;;;;;;;8.88;5.70;;;;;;;21.78;53.40;100571.78;5003910;28;20049;-49
2021/05/11 14:19:28;;;;;;;9.23;5.45;;;;;;;21.73;53.00;100569.38;4986891;28;20571;-47
2021/05/11 14:21:53;;;;;;;8.38;5.50;;;;;;;21.72;53.48;100584.03;5002403;28;20192;-48
2021/05/11 14:24:18;;;;;;;8.18;5.38;;;;;;;21.77;53.29;100596.50;4986877;28;20029;-50
2021/05/11 14:26:45;;;;;;;6.10;4.97;;;;;;;21.75;53.26;100591.44;5004764;28;20048;-46
2021/05/11 14:29:10;;;;;;;6.07;4.80;;;;;;;21.77;53.29;100580.25;4985515;28;20065;-48
2021/05/11 14:31:36;;;;;;;5.00;4.50;;;;;;;21.76;53.24;100590.28;5008385;28;20508;-49
2021/05/11 14:34:01;;;;;;;4.50;4.10;;;;;;;21.75;53.00;100602.25;5002601;28;20052;-47
2021/05/11 14:36:27;;;;;;;6.25;4.10;;;;;;;21.75;53.52;100602.25;5002638;28;20085;-58
2021/05/11 14:38:52;;;;;;;4.20;3.80;;;;;;;21.73;53.64;100607.25;5001742;28;20056;-47
2021/05/11 14:41:18;;;;;;;7.45;4.50;;;;;;;21.71;53.59;100612.25;5003693;28;20038;-45
2021/05/11 14:43:43;;;;;;;11.65;4.40;;;;;;;21.72;53.28;100618.44;4993859;28;20122;-44
2021/05/11 14:46:09;;;;;;;6.93;3.80;;;;;;;21.68;53.84;100615.66;5002583;28;20045;-46
2021/05/11 14:48:35;;;;;;;4.13;3.42;;;;;;;21.64;53.92;100614.81;5001497;28;20581;-44
2021/05/11 14:51:00;;;;;;;4.78;3.40;;;;;;;21.66;53.74;100607.13;4967650;28;20073;-45
2021/05/11 14:53:26;;;;;;;4.20;3.40;;;;;;;21.65;53.46;100607.47;5000771;28;20141;-44
2021/05/11 14:55:52;;;;;;;6.15;3.60;;;;;;;21.66;53.39;100603.66;5001767;28;20404;-46
2021/05/11 14:58:17;;;;;;;4.82;3.40;;;;;;;21.65;53.90;100612.91;5002056;28;20036;-46
2021/05/11 15:00:43;;;;;;;5.10;3.10;;;;;;;21.65;53.59;100613.69;5001620;28;20036;-48
2021/05/11 15:03:11;;;;;;;13.30;3.55;;;;;;;21.63;54.03;100613.28;5000379;28;20038;-50
2021/05/11 15:05:37;;;;;;;4.57;3.10;;;;;;;21.54;54.11;100626.25;5002563;28;21036;-52
2021/05/11 15:08:02;;;;;;;6.93;3.10;;;;;;;21.57;54.04;100624.72;4999381;28;20045;-53
2021/05/11 15:10:27;;;;;;;5.43;3.08;;;;;;;21.58;53.86;100629.81;5001626;28;20070;-52
2021/05/11 15:12:53;;;;;;;4.05;2.83;;;;;;;21.53;53.91;100632.03;5004384;28;20057;-53
2021/05/11 15:15:20;;;;;;;4.40;3.05;;;;;;;21.57;53.67;100620.13;4997488;28;20056;-52
2021/05/11 15:20:14;;;;;;;6.95;3.05;;;;;;;21.59;54.06;100636.75;5007591;28;20052;-50
2021/05/11 15:22:40;;;;;;;6.18;3.15;;;;;;;21.59;53.93;100628.63;5013407;28;20038;-53
2021/05/11 15:25:06;;;;;;;7.07;3.08;;;;;;;21.57;54.04;100624.72;5021445;28;20041;-50
2021/05/11 15:27:32;;;;;;;6.82;2.97;;;;;;;21.56;53.72;100628.56;5013048;28;20044;-53
2021/05/11 15:29:57;;;;;;;5.93;2.90;;;;;;;21.52;54.18;100633.94;5013181;28;20173;-52
2021/05/11 15:32:43;;;;;;;5.75;3.00;;;;;;;21.50;54.20;100621.91;5004456;28;20042;-50
2021/05/11 15:35:12;;;;;;;7.47;3.10;;;;;;;21.46;54.31;100618.34;5018770;28;20034;-50
2021/05/11 15:37:38;;;;;;;6.07;2.85;;;;;;;21.49;54.30;100614.94;5017018;28;20054;-50